sensor_id;sensor_type;location;lat;lon;timestamp;P1;durP1;ratioP1;P2;durP2;ratioP2
28298;SDS011;15565;52.600;6.456;2022-09-13T00:01:18;1.33;;;1.00;;
28298;SDS011;15565;52.600;6.456;2022-09-13T00:04:05;1.00;;;0.90;;
28298;SDS011;15565;52.600;6.456;2022-09-13T00:06:52;1.73;;;0.95;;
28298;SDS011;15565;52.600;6.456;2022-09-13T00:09:40;1.30;;;0.70;;
28298;SDS011;15565;52.600;6.456;2022-09-13T00:12:27;1.20;;;1.10;;
28298;SDS011;15565;52.600;6.456;2022-09-13T00:15:14;2.95;;;1.10;;
28298;SDS011;15565;52.600;6.456;2022-09-13T00:18:02;1.50;;;1.05;;
28298;SDS011;15565;52.600;6.456;2022-09-13T00:20:49;1.70;;;1.25;;
28298;SDS011;15565;52.600;6.456;2022-09-13T00:23:36;0.88;;;0.70;;
28298;SDS011;15565;52.600;6.456;2022-09-13T00:26:27;1.58;;;1.08;;
28298;SDS011;15565;52.600;6.456;2022-09-13T00:29:14;1.20;;;1.10;;
28298;SDS011;15565;52.600;6.456;2022-09-13T00:32:01;1.67;;;1.15;;
28298;SDS011;15565;52.600;6.456;2022-09-13T00:34:48;1.50;;;0.90;;
28298;SDS011;15565;52.600;6.456;2022-09-13T00:37:35;2.17;;;1.35;;
28298;SDS011;15565;52.600;6.456;2022-09-13T00:40:23;1.65;;;1.10;;
28298;SDS011;15565;52.600;6.456;2022-09-13T00:43:13;1.13;;;0.70;;
28298;SDS011;15565;52.600;6.456;2022-09-13T00:46:01;1.30;;;1.00;;
28298;SDS011;15565;52.600;6.456;2022-09-13T00:48:50;2.05;;;1.20;;
28298;SDS011;15565;52.600;6.456;2022-09-13T00:51:38;0.88;;;0.82;;
28298;SDS011;15565;52.600;6.456;2022-09-13T00:54:28;0.80;;;0.70;;
28298;SDS011;15565;52.600;6.456;2022-09-13T00:57:16;2.25;;;0.88;;
28298;SDS011;15565;52.600;6.456;2022-09-13T01:00:07;0.60;;;0.60;;
28298;SDS011;15565;52.600;6.456;2022-09-13T01:02:57;0.85;;;0.57;;
28298;SDS011;15565;52.600;6.456;2022-09-13T01:05:46;1.40;;;0.90;;
28298;SDS011;15565;52.600;6.456;2022-09-13T01:08:36;0.88;;;0.80;;
28298;SDS011;15565;52.600;6.456;2022-09-13T01:11:31;1.45;;;0.90;;
28298;SDS011;15565;52.600;6.456;2022-09-13T01:14:20;0.60;;;0.40;;
28298;SDS011;15565;52.600;6.456;2022-09-13T01:17:09;1.10;;;0.90;;
28298;SDS011;15565;52.600;6.456;2022-09-13T01:19:56;1.00;;;0.80;;
28298;SDS011;15565;52.600;6.456;2022-09-13T01:25:55;1.30;;;0.70;;
28298;SDS011;15565;52.600;6.456;2022-09-13T01:28:52;1.10;;;0.90;;
28298;SDS011;15565;52.600;6.456;2022-09-13T01:31:46;2.35;;;1.08;;
28298;SDS011;15565;52.600;6.456;2022-09-13T01:34:41;1.67;;;1.08;;
28298;SDS011;15565;52.600;6.456;2022-09-13T01:37:32;0.93;;;0.90;;
28298;SDS011;15565;52.600;6.456;2022-09-13T01:40:26;1.00;;;0.65;;
28298;SDS011;15565;52.600;6.456;2022-09-13T01:43:24;1.95;;;0.82;;
28298;SDS011;15565;52.600;6.456;2022-09-13T01:46:15;1.35;;;0.65;;
28298;SDS011;15565;52.600;6.456;2022-09-13T01:49:08;0.77;;;0.70;;
28298;SDS011;15565;52.600;6.456;2022-09-13T01:52:00;0.80;;;0.50;;
28298;SDS011;15565;52.600;6.456;2022-09-13T01:54:50;1.02;;;0.70;;
28298;SDS011;15565;52.600;6.456;2022-09-13T01:57:41;0.80;;;0.57;;
28298;SDS011;15565;52.600;6.456;2022-09-13T02:00:29;2.72;;;1.00;;
28298;SDS011;15565;52.600;6.456;2022-09-13T02:03:19;1.03;;;0.83;;
28298;SDS011;15565;52.600;6.456;2022-09-13T02:06:10;0.88;;;0.80;;
28298;SDS011;15565;52.600;6.456;2022-09-13T02:08:59;1.00;;;0.80;;
28298;SDS011;15565;52.600;6.456;2022-09-13T02:11:47;0.88;;;0.70;;
28298;SDS011;15565;52.600;6.456;2022-09-13T02:14:36;1.75;;;0.75;;
28298;SDS011;15565;52.600;6.456;2022-09-13T02:17:24;0.50;;;0.50;;
28298;SDS011;15565;52.600;6.456;2022-09-13T02:20:15;1.10;;;0.73;;
28298;SDS011;15565;52.600;6.456;2022-09-13T02:23:07;1.90;;;1.70;;
28298;SDS011;15565;52.600;6.456;2022-09-13T02:25:55;1.42;;;0.98;;
28298;SDS011;15565;52.600;6.456;2022-09-13T02:28:44;1.17;;;0.73;;
28298;SDS011;15565;52.600;6.456;2022-09-13T02:31:34;1.23;;;0.80;;
28298;SDS011;15565;52.600;6.456;2022-09-13T02:34:26;1.45;;;0.90;;
28298;SDS011;15565;52.600;6.456;2022-09-13T02:37:14;1.20;;;0.90;;
28298;SDS011;15565;52.600;6.456;2022-09-13T02:40:03;0.85;;;0.80;;
28298;SDS011;15565;52.600;6.456;2022-09-13T02:42:52;1.17;;;0.70;;
28298;SDS011;15565;52.600;6.456;2022-09-13T02:45:44;1.50;;;0.90;;
28298;SDS011;15565;52.600;6.456;2022-09-13T02:48:33;0.75;;;0.75;;
28298;SDS011;15565;52.600;6.456;2022-09-13T02:51:25;1.15;;;0.70;;
28298;SDS011;15565;52.600;6.456;2022-09-13T02:54:17;1.95;;;0.93;;
28298;SDS011;15565;52.600;6.456;2022-09-13T02:57:11;1.08;;;0.80;;
28298;SDS011;15565;52.600;6.456;2022-09-13T03:00:00;1.20;;;0.68;;
28298;SDS011;15565;52.600;6.456;2022-09-13T03:02:48;2.37;;;0.97;;
28298;SDS011;15565;52.600;6.456;2022-09-13T03:05:35;2.47;;;1.08;;
28298;SDS011;15565;52.600;6.456;2022-09-13T03:08:22;0.88;;;0.88;;
28298;SDS011;15565;52.600;6.456;2022-09-13T03:11:10;0.52;;;0.50;;
28298;SDS011;15565;52.600;6.456;2022-09-13T03:14:05;1.85;;;1.00;;
28298;SDS011;15565;52.600;6.456;2022-09-13T03:17:01;1.13;;;0.90;;
28298;SDS011;15565;52.600;6.456;2022-09-13T03:19:53;1.05;;;0.65;;
28298;SDS011;15565;52.600;6.456;2022-09-13T03:23:05;0.70;;;0.60;;
28298;SDS011;15565;52.600;6.456;2022-09-13T03:26:04;0.65;;;0.63;;
28298;SDS011;15565;52.600;6.456;2022-09-13T03:28:56;0.65;;;0.60;;
28298;SDS011;15565;52.600;6.456;2022-09-13T03:31:48;0.82;;;0.68;;
28298;SDS011;15565;52.600;6.456;2022-09-13T03:34:39;0.77;;;0.75;;
28298;SDS011;15565;52.600;6.456;2022-09-13T03:37:31;0.73;;;0.55;;
28298;SDS011;15565;52.600;6.456;2022-09-13T03:40:20;2.70;;;0.90;;
28298;SDS011;15565;52.600;6.456;2022-09-13T03:43:09;1.00;;;0.75;;
28298;SDS011;15565;52.600;6.456;2022-09-13T03:45:58;1.33;;;0.90;;
28298;SDS011;15565;52.600;6.456;2022-09-13T03:48:49;0.80;;;0.80;;
28298;SDS011;15565;52.600;6.456;2022-09-13T03:51:36;1.08;;;0.68;;
28298;SDS011;15565;52.600;6.456;2022-09-13T03:54:24;1.40;;;0.80;;
28298;SDS011;15565;52.600;6.456;2022-09-13T03:57:12;1.42;;;0.60;;
28298;SDS011;15565;52.600;6.456;2022-09-13T03:59:59;1.42;;;0.82;;
28298;SDS011;15565;52.600;6.456;2022-09-13T04:02:55;0.80;;;0.75;;
28298;SDS011;15565;52.600;6.456;2022-09-13T04:05:44;0.98;;;0.75;;
28298;SDS011;15565;52.600;6.456;2022-09-13T04:08:31;0.95;;;0.65;;
28298;SDS011;15565;52.600;6.456;2022-09-13T04:11:18;0.85;;;0.80;;
28298;SDS011;15565;52.600;6.456;2022-09-13T04:14:05;2.40;;;0.80;;
28298;SDS011;15565;52.600;6.456;2022-09-13T04:16:52;0.93;;;0.80;;
28298;SDS011;15565;52.600;6.456;2022-09-13T04:19:40;1.42;;;0.95;;
28298;SDS011;15565;52.600;6.456;2022-09-13T04:22:30;1.05;;;0.80;;
28298;SDS011;15565;52.600;6.456;2022-09-13T04:25:17;0.85;;;0.68;;
28298;SDS011;15565;52.600;6.456;2022-09-13T04:28:04;0.98;;;0.82;;
28298;SDS011;15565;52.600;6.456;2022-09-13T04:30:51;1.48;;;1.00;;
28298;SDS011;15565;52.600;6.456;2022-09-13T04:33:38;1.10;;;0.70;;
28298;SDS011;15565;52.600;6.456;2022-09-13T04:36:25;1.25;;;0.70;;
28298;SDS011;15565;52.600;6.456;2022-09-13T04:39:13;0.80;;;0.60;;
28298;SDS011;15565;52.600;6.456;2022-09-13T04:42:01;0.80;;;0.65;;
28298;SDS011;15565;52.600;6.456;2022-09-13T04:44:48;1.07;;;0.60;;
28298;SDS011;15565;52.600;6.456;2022-09-13T04:47:35;0.70;;;0.70;;
28298;SDS011;15565;52.600;6.456;2022-09-13T04:50:24;0.98;;;0.80;;
28298;SDS011;15565;52.600;6.456;2022-09-13T04:53:11;0.80;;;0.80;;
28298;SDS011;15565;52.600;6.456;2022-09-13T04:56:03;0.90;;;0.80;;
28298;SDS011;15565;52.600;6.456;2022-09-13T04:58:50;1.25;;;0.73;;
28298;SDS011;15565;52.600;6.456;2022-09-13T05:01:37;0.80;;;0.73;;
28298;SDS011;15565;52.600;6.456;2022-09-13T05:04:27;0.80;;;0.80;;
28298;SDS011;15565;52.600;6.456;2022-09-13T05:07:15;1.00;;;0.77;;
28298;SDS011;15565;52.600;6.456;2022-09-13T05:10:02;0.80;;;0.80;;
28298;SDS011;15565;52.600;6.456;2022-09-13T05:12:51;0.73;;;0.63;;
28298;SDS011;15565;52.600;6.456;2022-09-13T05:15:37;0.88;;;0.68;;
28298;SDS011;15565;52.600;6.456;2022-09-13T05:18:27;0.70;;;0.55;;
28298;SDS011;15565;52.600;6.456;2022-09-13T05:21:18;1.33;;;0.90;;
28298;SDS011;15565;52.600;6.456;2022-09-13T05:24:07;0.50;;;0.50;;
28298;SDS011;15565;52.600;6.456;2022-09-13T05:26:54;1.50;;;1.23;;
28298;SDS011;15565;52.600;6.456;2022-09-13T05:29:42;1.33;;;0.60;;
28298;SDS011;15565;52.600;6.456;2022-09-13T05:32:30;1.65;;;0.90;;
28298;SDS011;15565;52.600;6.456;2022-09-13T05:35:16;0.50;;;0.50;;
28298;SDS011;15565;52.600;6.456;2022-09-13T05:38:03;2.75;;;0.70;;
28298;SDS011;15565;52.600;6.456;2022-09-13T05:40:52;4.82;;;0.60;;
28298;SDS011;15565;52.600;6.456;2022-09-13T05:43:41;1.10;;;0.90;;
28298;SDS011;15565;52.600;6.456;2022-09-13T05:46:29;0.70;;;0.70;;
28298;SDS011;15565;52.600;6.456;2022-09-13T05:49:16;0.93;;;0.85;;
28298;SDS011;15565;52.600;6.456;2022-09-13T05:52:03;0.77;;;0.55;;
28298;SDS011;15565;52.600;6.456;2022-09-13T05:54:50;1.58;;;0.70;;
28298;SDS011;15565;52.600;6.456;2022-09-13T05:57:37;1.10;;;0.68;;
28298;SDS011;15565;52.600;6.456;2022-09-13T06:00:24;1.27;;;0.80;;
28298;SDS011;15565;52.600;6.456;2022-09-13T06:03:13;1.20;;;0.60;;
28298;SDS011;15565;52.600;6.456;2022-09-13T06:06:00;0.90;;;0.55;;
28298;SDS011;15565;52.600;6.456;2022-09-13T06:08:47;2.50;;;0.70;;
28298;SDS011;15565;52.600;6.456;2022-09-13T06:11:34;0.80;;;0.55;;
28298;SDS011;15565;52.600;6.456;2022-09-13T06:14:21;0.70;;;0.60;;
28298;SDS011;15565;52.600;6.456;2022-09-13T06:17:08;1.00;;;0.50;;
28298;SDS011;15565;52.600;6.456;2022-09-13T06:19:56;0.50;;;0.50;;
28298;SDS011;15565;52.600;6.456;2022-09-13T06:22:43;0.68;;;0.60;;
28298;SDS011;15565;52.600;6.456;2022-09-13T06:25:30;0.60;;;0.60;;
28298;SDS011;15565;52.600;6.456;2022-09-13T06:28:17;0.90;;;0.73;;
28298;SDS011;15565;52.600;6.456;2022-09-13T06:31:06;0.70;;;0.60;;
28298;SDS011;15565;52.600;6.456;2022-09-13T06:33:54;0.60;;;0.60;;
28298;SDS011;15565;52.600;6.456;2022-09-13T06:36:43;0.52;;;0.50;;
28298;SDS011;15565;52.600;6.456;2022-09-13T06:39:30;1.30;;;0.60;;
28298;SDS011;15565;52.600;6.456;2022-09-13T06:42:18;0.90;;;0.60;;
28298;SDS011;15565;52.600;6.456;2022-09-13T06:45:05;1.10;;;0.55;;
28298;SDS011;15565;52.600;6.456;2022-09-13T06:47:52;0.50;;;0.47;;
28298;SDS011;15565;52.600;6.456;2022-09-13T06:50:40;0.50;;;0.40;;
28298;SDS011;15565;52.600;6.456;2022-09-13T06:53:28;1.08;;;0.50;;
28298;SDS011;15565;52.600;6.456;2022-09-13T06:56:16;0.65;;;0.50;;
28298;SDS011;15565;52.600;6.456;2022-09-13T06:59:03;0.50;;;0.50;;
28298;SDS011;15565;52.600;6.456;2022-09-13T07:01:50;0.60;;;0.55;;
28298;SDS011;15565;52.600;6.456;2022-09-13T07:04:37;0.67;;;0.37;;
28298;SDS011;15565;52.600;6.456;2022-09-13T07:07:24;0.60;;;0.40;;
28298;SDS011;15565;52.600;6.456;2022-09-13T07:10:13;0.40;;;0.40;;
28298;SDS011;15565;52.600;6.456;2022-09-13T07:13:00;0.95;;;0.50;;
28298;SDS011;15565;52.600;6.456;2022-09-13T07:15:47;0.40;;;0.40;;
28298;SDS011;15565;52.600;6.456;2022-09-13T07:18:36;0.88;;;0.60;;
28298;SDS011;15565;52.600;6.456;2022-09-13T07:21:24;0.30;;;0.30;;
28298;SDS011;15565;52.600;6.456;2022-09-13T07:24:11;0.28;;;0.28;;
28298;SDS011;15565;52.600;6.456;2022-09-13T07:27:00;1.65;;;0.38;;
28298;SDS011;15565;52.600;6.456;2022-09-13T07:29:47;0.32;;;0.30;;
28298;SDS011;15565;52.600;6.456;2022-09-13T07:32:34;0.40;;;0.40;;
28298;SDS011;15565;52.600;6.456;2022-09-13T07:35:21;0.20;;;0.20;;
28298;SDS011;15565;52.600;6.456;2022-09-13T07:38:07;0.32;;;0.32;;
28298;SDS011;15565;52.600;6.456;2022-09-13T07:40:55;0.40;;;0.30;;
28298;SDS011;15565;52.600;6.456;2022-09-13T07:43:44;0.50;;;0.40;;
28298;SDS011;15565;52.600;6.456;2022-09-13T07:46:32;0.40;;;0.40;;
28298;SDS011;15565;52.600;6.456;2022-09-13T07:49:20;0.50;;;0.50;;
28298;SDS011;15565;52.600;6.456;2022-09-13T07:52:07;0.60;;;0.40;;
28298;SDS011;15565;52.600;6.456;2022-09-13T07:54:58;0.60;;;0.50;;
28298;SDS011;15565;52.600;6.456;2022-09-13T07:57:46;1.25;;;0.50;;
28298;SDS011;15565;52.600;6.456;2022-09-13T08:00:34;1.10;;;0.50;;
28298;SDS011;15565;52.600;6.456;2022-09-13T08:03:21;0.28;;;0.20;;
28298;SDS011;15565;52.600;6.456;2022-09-13T08:06:09;0.32;;;0.30;;
28298;SDS011;15565;52.600;6.456;2022-09-13T08:08:56;0.25;;;0.25;;
28298;SDS011;15565;52.600;6.456;2022-09-13T08:11:45;0.50;;;0.30;;
28298;SDS011;15565;52.600;6.456;2022-09-13T08:14:32;0.57;;;0.20;;
28298;SDS011;15565;52.600;6.456;2022-09-13T08:17:20;1.70;;;0.30;;
28298;SDS011;15565;52.600;6.456;2022-09-13T08:20:08;1.50;;;0.40;;
28298;SDS011;15565;52.600;6.456;2022-09-13T08:22:55;1.30;;;0.33;;
28298;SDS011;15565;52.600;6.456;2022-09-13T08:25:42;0.28;;;0.28;;
28298;SDS011;15565;52.600;6.456;2022-09-13T08:28:29;0.70;;;0.40;;
28298;SDS011;15565;52.600;6.456;2022-09-13T08:31:16;0.25;;;0.25;;
28298;SDS011;15565;52.600;6.456;2022-09-13T08:34:06;0.80;;;0.30;;
28298;SDS011;15565;52.600;6.456;2022-09-13T08:36:53;0.30;;;0.22;;
28298;SDS011;15565;52.600;6.456;2022-09-13T08:39:40;0.33;;;0.30;;
28298;SDS011;15565;52.600;6.456;2022-09-13T08:42:29;0.32;;;0.32;;
28298;SDS011;15565;52.600;6.456;2022-09-13T08:45:18;0.38;;;0.28;;
28298;SDS011;15565;52.600;6.456;2022-09-13T08:48:09;0.20;;;0.20;;
28298;SDS011;15565;52.600;6.456;2022-09-13T08:51:01;0.40;;;0.30;;
28298;SDS011;15565;52.600;6.456;2022-09-13T08:53:49;0.20;;;0.20;;
28298;SDS011;15565;52.600;6.456;2022-09-13T08:56:37;0.22;;;0.08;;
28298;SDS011;15565;52.600;6.456;2022-09-13T08:59:30;0.30;;;0.20;;
28298;SDS011;15565;52.600;6.456;2022-09-13T09:02:22;1.17;;;0.28;;
28298;SDS011;15565;52.600;6.456;2022-09-13T09:05:16;0.50;;;0.10;;
28298;SDS011;15565;52.600;6.456;2022-09-13T09:08:05;0.10;;;0.10;;
28298;SDS011;15565;52.600;6.456;2022-09-13T09:10:56;1.90;;;0.30;;
28298;SDS011;15565;52.600;6.456;2022-09-13T09:13:46;1.42;;;0.22;;
28298;SDS011;15565;52.600;6.456;2022-09-13T09:16:36;2.22;;;0.22;;
28298;SDS011;15565;52.600;6.456;2022-09-13T09:19:26;0.40;;;0.20;;
28298;SDS011;15565;52.600;6.456;2022-09-13T09:22:16;1.10;;;0.20;;
28298;SDS011;15565;52.600;6.456;2022-09-13T09:25:09;0.15;;;0.10;;
28298;SDS011;15565;52.600;6.456;2022-09-13T09:27:57;0.60;;;0.60;;
28298;SDS011;15565;52.600;6.456;2022-09-13T09:30:48;1.80;;;0.47;;
28298;SDS011;15565;52.600;6.456;2022-09-13T09:33:43;1.50;;;0.40;;
28298;SDS011;15565;52.600;6.456;2022-09-13T09:36:36;0.33;;;0.33;;
28298;SDS011;15565;52.600;6.456;2022-09-13T09:39:26;1.23;;;0.10;;
28298;SDS011;15565;52.600;6.456;2022-09-13T09:42:19;0.20;;;0.20;;
28298;SDS011;15565;52.600;6.456;2022-09-13T09:45:17;0.30;;;0.22;;
28298;SDS011;15565;52.600;6.456;2022-09-13T09:48:11;0.30;;;0.30;;
28298;SDS011;15565;52.600;6.456;2022-09-13T09:50:59;0.68;;;0.30;;
28298;SDS011;15565;52.600;6.456;2022-09-13T09:53:46;0.13;;;0.13;;
28298;SDS011;15565;52.600;6.456;2022-09-13T09:56:34;0.50;;;0.25;;
28298;SDS011;15565;52.600;6.456;2022-09-13T09:59:26;2.38;;;0.70;;
28298;SDS011;15565;52.600;6.456;2022-09-13T10:02:16;0.88;;;0.60;;
28298;SDS011;15565;52.600;6.456;2022-09-13T10:05:04;0.43;;;0.20;;
28298;SDS011;15565;52.600;6.456;2022-09-13T10:07:52;0.95;;;0.22;;
28298;SDS011;15565;52.600;6.456;2022-09-13T10:10:40;0.30;;;0.20;;
28298;SDS011;15565;52.600;6.456;2022-09-13T10:13:29;0.17;;;0.17;;
28298;SDS011;15565;52.600;6.456;2022-09-13T10:16:23;1.00;;;0.25;;
28298;SDS011;15565;52.600;6.456;2022-09-13T10:19:19;0.73;;;0.30;;
28298;SDS011;15565;52.600;6.456;2022-09-13T10:22:09;0.20;;;0.20;;
28298;SDS011;15565;52.600;6.456;2022-09-13T10:25:10;0.60;;;0.22;;
28298;SDS011;15565;52.600;6.456;2022-09-13T10:27:59;0.30;;;0.30;;
28298;SDS011;15565;52.600;6.456;2022-09-13T10:30:47;0.50;;;0.20;;
28298;SDS011;15565;52.600;6.456;2022-09-13T10:33:37;0.80;;;0.37;;
28298;SDS011;15565;52.600;6.456;2022-09-13T10:36:25;0.60;;;0.20;;
28298;SDS011;15565;52.600;6.456;2022-09-13T10:39:33;2.35;;;0.30;;
28298;SDS011;15565;52.600;6.456;2022-09-13T10:42:23;0.40;;;0.30;;
28298;SDS011;15565;52.600;6.456;2022-09-13T10:45:17;1.33;;;0.30;;
28298;SDS011;15565;52.600;6.456;2022-09-13T10:48:11;0.32;;;0.20;;
28298;SDS011;15565;52.600;6.456;2022-09-13T10:51:02;0.87;;;0.40;;
28298;SDS011;15565;52.600;6.456;2022-09-13T10:53:54;1.17;;;0.35;;
28298;SDS011;15565;52.600;6.456;2022-09-13T10:56:52;0.63;;;0.40;;
28298;SDS011;15565;52.600;6.456;2022-09-13T10:59:43;0.20;;;0.13;;
28298;SDS011;15565;52.600;6.456;2022-09-13T11:05:44;0.90;;;0.45;;
28298;SDS011;15565;52.600;6.456;2022-09-13T11:08:38;0.20;;;0.20;;
28298;SDS011;15565;52.600;6.456;2022-09-13T11:11:28;0.95;;;0.40;;
28298;SDS011;15565;52.600;6.456;2022-09-13T11:14:30;1.60;;;0.20;;
28298;SDS011;15565;52.600;6.456;2022-09-13T11:17:21;1.20;;;0.20;;
28298;SDS011;15565;52.600;6.456;2022-09-13T11:20:12;0.20;;;0.20;;
28298;SDS011;15565;52.600;6.456;2022-09-13T11:23:12;0.60;;;0.40;;
28298;SDS011;15565;52.600;6.456;2022-09-13T11:26:15;1.02;;;0.47;;
28298;SDS011;15565;52.600;6.456;2022-09-13T11:29:06;2.20;;;0.30;;
28298;SDS011;15565;52.600;6.456;2022-09-13T11:31:59;0.60;;;0.30;;
28298;SDS011;15565;52.600;6.456;2022-09-13T11:34:54;0.50;;;0.50;;
28298;SDS011;15565;52.600;6.456;2022-09-13T11:37:44;1.63;;;0.80;;
28298;SDS011;15565;52.600;6.456;2022-09-13T11:40:38;0.60;;;0.25;;
28298;SDS011;15565;52.600;6.456;2022-09-13T11:43:32;0.73;;;0.32;;
28298;SDS011;15565;52.600;6.456;2022-09-13T11:46:23;0.60;;;0.50;;
28298;SDS011;15565;52.600;6.456;2022-09-13T11:49:33;0.32;;;0.30;;
28298;SDS011;15565;52.600;6.456;2022-09-13T11:52:25;0.40;;;0.35;;
28298;SDS011;15565;52.600;6.456;2022-09-13T11:55:16;1.70;;;0.30;;
28298;SDS011;15565;52.600;6.456;2022-09-13T11:58:04;1.75;;;0.40;;
28298;SDS011;15565;52.600;6.456;2022-09-13T12:00:55;2.00;;;0.40;;
28298;SDS011;15565;52.600;6.456;2022-09-13T12:03:45;2.53;;;0.30;;
28298;SDS011;15565;52.600;6.456;2022-09-13T12:06:35;1.30;;;0.20;;
28298;SDS011;15565;52.600;6.456;2022-09-13T12:09:25;0.85;;;0.25;;
28298;SDS011;15565;52.600;6.456;2022-09-13T12:12:14;0.00;;;0.00;;
28298;SDS011;15565;52.600;6.456;2022-09-13T12:15:02;0.20;;;0.10;;
28298;SDS011;15565;52.600;6.456;2022-09-13T12:17:53;0.30;;;0.20;;
28298;SDS011;15565;52.600;6.456;2022-09-13T12:20:46;0.30;;;0.13;;
28298;SDS011;15565;52.600;6.456;2022-09-13T12:23:35;0.20;;;0.10;;
28298;SDS011;15565;52.600;6.456;2022-09-13T12:26:24;0.60;;;0.20;;
28298;SDS011;15565;52.600;6.456;2022-09-13T12:29:15;2.40;;;0.60;;
28298;SDS011;15565;52.600;6.456;2022-09-13T12:32:04;0.70;;;0.30;;
28298;SDS011;15565;52.600;6.456;2022-09-13T12:34:55;0.80;;;0.70;;
28298;SDS011;15565;52.600;6.456;2022-09-13T12:37:50;0.77;;;0.30;;
28298;SDS011;15565;52.600;6.456;2022-09-13T12:40:53;0.30;;;0.22;;
28298;SDS011;15565;52.600;6.456;2022-09-13T12:47:04;0.47;;;0.23;;
28298;SDS011;15565;52.600;6.456;2022-09-13T12:50:11;0.57;;;0.45;;
28298;SDS011;15565;52.600;6.456;2022-09-13T12:56:31;5.85;;;0.70;;
28298;SDS011;15565;52.600;6.456;2022-09-13T12:59:35;0.45;;;0.28;;
28298;SDS011;15565;52.600;6.456;2022-09-13T13:02:25;0.22;;;0.20;;
28298;SDS011;15565;52.600;6.456;2022-09-13T13:05:23;0.10;;;0.10;;
28298;SDS011;15565;52.600;6.456;2022-09-13T13:08:20;0.60;;;0.20;;
28298;SDS011;15565;52.600;6.456;2022-09-13T13:11:12;0.20;;;0.20;;
28298;SDS011;15565;52.600;6.456;2022-09-13T13:14:00;0.60;;;0.20;;
28298;SDS011;15565;52.600;6.456;2022-09-13T13:16:53;0.25;;;0.15;;
28298;SDS011;15565;52.600;6.456;2022-09-13T13:19:40;0.57;;;0.20;;
28298;SDS011;15565;52.600;6.456;2022-09-13T13:25:36;0.35;;;0.35;;
28298;SDS011;15565;52.600;6.456;2022-09-13T13:31:33;0.70;;;0.20;;
28298;SDS011;15565;52.600;6.456;2022-09-13T13:34:27;1.50;;;0.20;;
28298;SDS011;15565;52.600;6.456;2022-09-13T13:37:28;0.10;;;0.10;;
28298;SDS011;15565;52.600;6.456;2022-09-13T13:43:16;0.20;;;0.20;;
28298;SDS011;15565;52.600;6.456;2022-09-13T13:46:25;0.53;;;0.10;;
28298;SDS011;15565;52.600;6.456;2022-09-13T13:52:34;2.50;;;0.20;;
28298;SDS011;15565;52.600;6.456;2022-09-13T13:55:39;1.30;;;0.30;;
28298;SDS011;15565;52.600;6.456;2022-09-13T13:58:36;0.13;;;0.13;;
28298;SDS011;15565;52.600;6.456;2022-09-13T14:01:30;2.85;;;0.30;;
28298;SDS011;15565;52.600;6.456;2022-09-13T14:07:42;0.85;;;0.10;;
28298;SDS011;15565;52.600;6.456;2022-09-13T14:10:37;0.40;;;0.17;;
28298;SDS011;15565;52.600;6.456;2022-09-13T14:13:41;0.25;;;0.20;;
28298;SDS011;15565;52.600;6.456;2022-09-13T14:16:36;1.00;;;0.30;;
28298;SDS011;15565;52.600;6.456;2022-09-13T14:19:26;0.30;;;0.20;;
28298;SDS011;15565;52.600;6.456;2022-09-13T14:22:14;0.25;;;0.20;;
28298;SDS011;15565;52.600;6.456;2022-09-13T14:25:12;0.45;;;0.20;;
28298;SDS011;15565;52.600;6.456;2022-09-13T14:27:59;0.55;;;0.28;;
28298;SDS011;15565;52.600;6.456;2022-09-13T14:30:49;0.17;;;0.17;;
28298;SDS011;15565;52.600;6.456;2022-09-13T14:33:37;1.08;;;0.70;;
28298;SDS011;15565;52.600;6.456;2022-09-13T14:36:25;1.20;;;0.20;;
28298;SDS011;15565;52.600;6.456;2022-09-13T14:39:11;0.30;;;0.17;;
28298;SDS011;15565;52.600;6.456;2022-09-13T14:41:59;0.13;;;0.13;;
28298;SDS011;15565;52.600;6.456;2022-09-13T14:44:47;1.50;;;0.50;;
28298;SDS011;15565;52.600;6.456;2022-09-13T14:47:36;0.50;;;0.20;;
28298;SDS011;15565;52.600;6.456;2022-09-13T14:50:28;0.68;;;0.43;;
28298;SDS011;15565;52.600;6.456;2022-09-13T14:53:17;0.93;;;0.30;;
28298;SDS011;15565;52.600;6.456;2022-09-13T14:56:06;4.75;;;0.63;;
28298;SDS011;15565;52.600;6.456;2022-09-13T14:59:00;0.37;;;0.27;;
28298;SDS011;15565;52.600;6.456;2022-09-13T15:01:49;0.30;;;0.30;;
28298;SDS011;15565;52.600;6.456;2022-09-13T15:04:40;0.30;;;0.30;;
28298;SDS011;15565;52.600;6.456;2022-09-13T15:07:42;0.30;;;0.30;;
28298;SDS011;15565;52.600;6.456;2022-09-13T15:10:31;1.10;;;0.20;;
28298;SDS011;15565;52.600;6.456;2022-09-13T15:13:19;0.30;;;0.20;;
28298;SDS011;15565;52.600;6.456;2022-09-13T15:16:23;0.50;;;0.20;;
28298;SDS011;15565;52.600;6.456;2022-09-13T15:19:15;0.32;;;0.22;;
28298;SDS011;15565;52.600;6.456;2022-09-13T15:22:13;0.20;;;0.10;;
28298;SDS011;15565;52.600;6.456;2022-09-13T15:25:01;0.38;;;0.10;;
28298;SDS011;15565;52.600;6.456;2022-09-13T15:27:55;0.32;;;0.15;;
28298;SDS011;15565;52.600;6.456;2022-09-13T15:30:42;0.80;;;0.25;;
28298;SDS011;15565;52.600;6.456;2022-09-13T15:33:30;1.80;;;0.20;;
28298;SDS011;15565;52.600;6.456;2022-09-13T15:36:26;1.85;;;0.30;;
28298;SDS011;15565;52.600;6.456;2022-09-13T15:39:15;1.00;;;0.30;;
28298;SDS011;15565;52.600;6.456;2022-09-13T15:42:03;0.35;;;0.35;;
28298;SDS011;15565;52.600;6.456;2022-09-13T15:44:50;1.60;;;0.30;;
28298;SDS011;15565;52.600;6.456;2022-09-13T15:47:37;0.63;;;0.15;;
28298;SDS011;15565;52.600;6.456;2022-09-13T15:50:25;0.30;;;0.20;;
28298;SDS011;15565;52.600;6.456;2022-09-13T15:53:14;0.50;;;0.30;;
28298;SDS011;15565;52.600;6.456;2022-09-13T15:56:03;0.20;;;0.20;;
28298;SDS011;15565;52.600;6.456;2022-09-13T15:58:50;0.20;;;0.10;;
28298;SDS011;15565;52.600;6.456;2022-09-13T16:01:38;2.05;;;0.20;;
28298;SDS011;15565;52.600;6.456;2022-09-13T16:04:25;0.95;;;0.20;;
28298;SDS011;15565;52.600;6.456;2022-09-13T16:07:12;1.50;;;0.25;;
28298;SDS011;15565;52.600;6.456;2022-09-13T16:09:59;0.10;;;0.10;;
28298;SDS011;15565;52.600;6.456;2022-09-13T16:12:52;0.52;;;0.25;;
28298;SDS011;15565;52.600;6.456;2022-09-13T16:15:52;1.30;;;0.30;;
28298;SDS011;15565;52.600;6.456;2022-09-13T16:18:43;1.40;;;0.40;;
28298;SDS011;15565;52.600;6.456;2022-09-13T16:21:30;0.80;;;0.20;;
28298;SDS011;15565;52.600;6.456;2022-09-13T16:24:17;1.50;;;0.40;;
28298;SDS011;15565;52.600;6.456;2022-09-13T16:27:05;0.90;;;0.30;;
28298;SDS011;15565;52.600;6.456;2022-09-13T16:29:53;2.20;;;1.13;;
28298;SDS011;15565;52.600;6.456;2022-09-13T16:32:41;0.50;;;0.15;;
28298;SDS011;15565;52.600;6.456;2022-09-13T16:35:28;0.70;;;0.30;;
28298;SDS011;15565;52.600;6.456;2022-09-13T16:38:15;0.30;;;0.30;;
28298;SDS011;15565;52.600;6.456;2022-09-13T16:41:03;0.30;;;0.20;;
28298;SDS011;15565;52.600;6.456;2022-09-13T16:43:50;1.45;;;0.60;;
28298;SDS011;15565;52.600;6.456;2022-09-13T16:46:41;1.13;;;0.60;;
28298;SDS011;15565;52.600;6.456;2022-09-13T16:49:28;1.77;;;0.52;;
28298;SDS011;15565;52.600;6.456;2022-09-13T16:52:15;1.88;;;0.40;;
28298;SDS011;15565;52.600;6.456;2022-09-13T16:55:02;2.95;;;0.70;;
28298;SDS011;15565;52.600;6.456;2022-09-13T16:57:49;3.07;;;0.70;;
28298;SDS011;15565;52.600;6.456;2022-09-13T17:00:36;3.13;;;0.55;;
28298;SDS011;15565;52.600;6.456;2022-09-13T17:03:25;0.47;;;0.40;;
28298;SDS011;15565;52.600;6.456;2022-09-13T17:06:13;1.70;;;0.30;;
28298;SDS011;15565;52.600;6.456;2022-09-13T17:09:01;0.90;;;0.30;;
28298;SDS011;15565;52.600;6.456;2022-09-13T17:11:49;1.10;;;0.35;;
28298;SDS011;15565;52.600;6.456;2022-09-13T17:14:36;1.70;;;0.30;;
28298;SDS011;15565;52.600;6.456;2022-09-13T17:17:31;0.80;;;0.50;;
28298;SDS011;15565;52.600;6.456;2022-09-13T17:20:21;0.70;;;0.30;;
28298;SDS011;15565;52.600;6.456;2022-09-13T17:23:09;0.20;;;0.20;;
28298;SDS011;15565;52.600;6.456;2022-09-13T17:25:56;1.40;;;0.30;;
28298;SDS011;15565;52.600;6.456;2022-09-13T17:28:45;0.98;;;0.20;;
28298;SDS011;15565;52.600;6.456;2022-09-13T17:31:32;0.90;;;0.20;;
28298;SDS011;15565;52.600;6.456;2022-09-13T17:34:20;0.15;;;0.10;;